Time;durP1;ratioP1;P1;durP2;ratioP2;P2;SDS_P1;SDS_P2;PMS_P1;PMS_P2;Temp;Humidity;BMP_temperature;BMP_pressure;BME280_temperature;BME280_humidity;BME280_pressure;Samples;Min_cycle;Max_cycle;Signal;HPM_P1;HPM_P2
2023/05/22 00:00:14;;;;;;;7.90;7.10;;;;;;;17.53;nan;99142.44;5077316;28;20211;-81
2023/05/22 00:02:42;;;;;;;8.37;7.57;;;;;;;17.52;nan;99139.94;5077441;28;20246;-82
2023/05/22 00:05:12;;;;;;;9.63;6.88;;;;;;;17.51;nan;99135.63;5077517;28;20440;-81
2023/05/22 00:07:38;;;;;;;7.80;6.25;;;;;;;17.48;nan;99129.63;5075082;28;20479;-82
2023/05/22 00:10:04;;;;;;;8.97;6.17;;;;;;;17.43;nan;99129.25;5075195;28;20214;-82
2023/05/22 00:12:29;;;;;;;8.23;6.77;;;;;;;17.41;nan;99120.59;5078528;28;20209;-81
2023/05/22 00:14:55;;;;;;;9.00;7.50;;;;;;;17.40;nan;99118.09;5074996;28;20884;-82
2023/05/22 00:17:20;;;;;;;12.40;8.53;;;;;;;17.37;nan;99121.91;5076388;28;20716;-82
2023/05/22 00:19:46;;;;;;;10.27;6.70;;;;;;;17.34;nan;99124.03;5076002;28;21233;-82
2023/05/22 00:22:11;;;;;;;8.90;6.97;;;;;;;17.29;nan;99127.13;5076333;28;20222;-82
2023/05/22 00:24:37;;;;;;;10.10;6.67;;;;;;;17.26;nan;99114.19;5077247;28;20471;-81
2023/05/22 00:27:03;;;;;;;8.50;6.60;;;;;;;17.26;nan;99116.84;5075219;28;20223;-82
2023/05/22 00:29:30;;;;;;;11.63;6.80;;;;;;;17.24;nan;99118.78;5056565;28;20218;-81
2023/05/22 00:31:55;;;;;;;8.00;7.20;;;;;;;17.21;nan;99124.41;5052722;28;20215;-81
2023/05/22 00:34:21;;;;;;;10.00;6.50;;;;;;;17.18;nan;99130.03;5074968;28;20468;-81
2023/05/22 00:36:46;;;;;;;9.70;7.80;;;;;;;17.14;nan;99126.81;5075013;28;20220;-81
2023/05/22 00:39:11;;;;;;;7.63;6.43;;;;;;;17.13;nan;99135.78;5073323;28;20271;-82
2023/05/22 00:41:37;;;;;;;21.93;7.03;;;;;;;17.10;nan;99133.44;5056174;28;20901;-81
2023/05/22 00:44:03;;;;;;;10.30;6.67;;;;;;;17.07;nan;99132.91;5075482;28;20210;-81
2023/05/22 00:46:28;;;;;;;10.93;8.10;;;;;;;17.01;nan;99131.66;5057313;28;20200;-82
2023/05/22 00:48:54;;;;;;;8.07;5.53;;;;;;;16.95;nan;99129.63;5076844;28;20283;-82
2023/05/22 00:51:20;;;;;;;10.47;6.23;;;;;;;16.91;nan;99130.91;5075557;28;20311;-82
2023/05/22 00:53:52;;;;;;;8.63;6.40;;;;;;;16.90;nan;99130.06;5077704;28;20213;-83
2023/05/22 00:56:18;;;;;;;9.35;5.40;;;;;;;16.90;nan;99138.03;5074762;28;20221;-81
2023/05/22 00:58:44;;;;;;;9.00;6.20;;;;;;;16.88;nan;99144.47;5076520;28;20373;-81
2023/05/22 01:01:10;;;;;;;9.63;6.70;;;;;;;16.83;nan;99142.28;5074142;28;20209;-81
2023/05/22 01:03:45;;;;;;;10.50;6.82;;;;;;;16.79;nan;99149.66;5056615;28;20239;-80
2023/05/22 01:06:16;;;;;;;10.15;5.60;;;;;;;16.81;nan;99141.56;5077569;28;20214;-81
2023/05/22 01:08:42;;;;;;;8.00;6.07;;;;;;;16.80;nan;99142.56;5078160;28;20209;-81
2023/05/22 01:11:30;;;;;;;7.93;6.37;;;;;;;16.77;nan;99133.09;5075859;28;20247;-81
2023/05/22 01:14:28;;;;;;;8.32;7.18;;;;;;;16.74;nan;99135.16;5073014;28;20217;-82
2023/05/22 01:17:12;;;;;;;7.13;6.05;;;;;;;16.72;nan;99132.66;5069901;28;20229;-83
2023/05/22 01:20:00;;;;;;;6.47;5.45;;;;;;;16.72;nan;99124.72;5054016;28;20697;-82
2023/05/22 01:22:48;;;;;;;7.57;6.00;;;;;;;16.72;nan;99129.19;5058318;28;20209;-82
2023/05/22 01:25:51;;;;;;;10.93;6.22;;;;;;;16.70;nan;99120.53;5055562;28;20213;-82
2023/05/22 01:28:26;;;;;;;6.90;4.78;;;;;;;16.62;nan;99120.44;5077019;28;20213;-82
2023/05/22 01:31:30;;;;;;;5.53;3.80;;;;;;;16.54;nan;99131.78;5057987;28;20910;-82
2023/05/22 01:33:56;;;;;;;6.10;5.43;;;;;;;16.46;nan;99139.66;4978465;28;20210;-82
2023/05/22 01:36:33;;;;;;;7.68;5.75;;;;;;;16.38;nan;99137.72;4973701;28;20224;-82
2023/05/22 01:39:00;;;;;;;6.47;4.78;;;;;;;16.35;nan;99143.31;5018152;28;20228;-82
2023/05/22 01:41:28;;;;;;;8.77;5.97;;;;;;;16.35;nan;99138.00;5055801;28;20210;-82
2023/05/22 01:43:53;;;;;;;10.20;5.95;;;;;;;16.33;nan;99143.44;5076231;28;20692;-82
2023/05/22 01:46:20;;;;;;;8.98;5.80;;;;;;;16.35;nan;99145.97;5074739;28;20258;-81
2023/05/22 01:48:46;;;;;;;8.38;6.35;;;;;;;16.37;nan;99141.34;5075929;28;21214;-82
2023/05/22 01:51:20;;;;;;;9.98;6.28;;;;;;;16.39;nan;99144.72;5057591;28;20218;-82
2023/05/22 01:53:49;;;;;;;7.40;5.38;;;;;;;16.43;nan;99150.53;5074802;28;20216;-81
2023/05/22 01:56:21;;;;;;;7.47;6.78;;;;;;;16.42;nan;99147.06;5057665;28;20214;-82
2023/05/22 01:58:55;;;;;;;6.43;5.70;;;;;;;16.38;nan;99138.53;5059174;28;20240;-83
2023/05/22 02:01:25;;;;;;;7.97;6.28;;;;;;;16.37;nan;99131.59;5079550;28;20211;-81
2023/05/22 02:03:55;;;;;;;7.07;6.18;;;;;;;16.37;nan;99125.47;5065671;28;20217;-81
2023/05/22 02:06:22;;;;;;;8.15;5.80;;;;;;;16.38;nan;99125.28;5080837;28;20312;-81
2023/05/22 02:08:49;;;;;;;10.32;6.88;;;;;;;16.38;nan;99127.94;5064289;28;20268;-82
2023/05/22 02:11:15;;;;;;;11.45;6.40;;;;;;;16.37;nan;99125.47;5062685;28;20235;-82
2023/05/22 02:13:41;;;;;;;9.70;7.68;;;;;;;16.39;nan;99134.09;5065233;28;20271;-82
2023/05/22 02:16:07;;;;;;;8.03;6.10;;;;;;;16.35;nan;99138.00;5085258;28;20241;-82
2023/05/22 02:18:33;;;;;;;8.93;6.80;;;;;;;16.32;nan;99133.84;5064415;28;20473;-82
2023/05/22 02:20:59;;;;;;;7.57;6.90;;;;;;;16.33;nan;99134.66;5060833;28;20460;-82
2023/05/22 02:23:28;;;;;;;7.22;5.85;;;;;;;16.34;nan;99136.34;5081045;28;20214;-81
2023/05/22 02:25:54;;;;;;;14.13;6.50;;;;;;;16.36;nan;99131.72;5064518;28;20666;-81
2023/05/22 02:28:20;;;;;;;7.07;6.27;;;;;;;16.37;nan;99125.47;5080709;28;20237;-81
2023/05/22 02:30:46;;;;;;;9.90;7.37;;;;;;;16.36;nan;99124.63;5061822;28;20267;-82
2023/05/22 02:33:11;;;;;;;10.90;7.80;;;;;;;16.36;nan;99126.41;5064554;28;20235;-81
2023/05/22 02:35:37;;;;;;;8.93;7.93;;;;;;;16.36;nan;99121.97;5063214;28;20216;-82
2023/05/22 02:38:02;;;;;;;9.67;7.30;;;;;;;16.41;nan;99123.34;5065931;28;20217;-82
2023/05/22 02:40:28;;;;;;;14.10;7.10;;;;;;;16.43;nan;99116.09;5082962;28;20251;-82
2023/05/22 02:42:53;;;;;;;10.00;6.37;;;;;;;16.46;nan;99113.97;5086245;28;20210;-82
2023/05/22 02:45:19;;;;;;;8.27;7.17;;;;;;;16.49;nan;99104.88;5064231;28;20262;-81
2023/05/22 02:47:44;;;;;;;8.93;7.27;;;;;;;16.52;nan;99113.34;5071493;22;20243;-84
2023/05/22 02:50:10;;;;;;;11.03;7.37;;;;;;;16.54;nan;99107.94;5025574;28;20204;-84
2023/05/22 02:52:38;;;;;;;11.17;9.10;;;;;;;16.54;nan;99106.09;5033373;28;20219;-84
2023/05/22 02:55:04;;;;;;;10.07;6.80;;;;;;;16.54;nan;99105.28;5052216;28;20218;-85
2023/05/22 02:57:29;;;;;;;10.80;9.40;;;;;;;16.54;nan;99110.56;5036653;28;20223;-84
2023/05/22 02:59:58;;;;;;;9.25;7.03;;;;;;;16.54;nan;99107.94;5033380;28;20465;-81
2023/05/22 03:02:31;;;;;;;14.73;8.60;;;;;;;16.56;nan;99109.44;5035863;28;20362;-81
2023/05/22 03:05:00;;;;;;;10.15;7.05;;;;;;;16.57;nan;99111.09;5055050;28;20523;-83
2023/05/22 03:07:25;;;;;;;11.45;8.80;;;;;;;16.62;nan;99108.03;5053584;28;20223;-85
2023/05/22 03:09:52;;;;;;;10.17;8.50;;;;;;;16.64;nan;99111.38;5037678;28;20207;-82
2023/05/22 03:12:17;;;;;;;11.70;8.63;;;;;;;16.65;nan;99106.88;5056755;28;20468;-87
2023/05/22 03:14:43;;;;;;;9.33;8.33;;;;;;;16.66;nan;99113.84;5053639;28;20834;-82
2023/05/22 03:17:08;;;;;;;10.20;7.70;;;;;;;16.67;nan;99108.41;5037650;28;20224;-81
2023/05/22 03:19:34;;;;;;;9.40;7.07;;;;;;;16.68;nan;99118.03;5033734;28;20210;-86
2023/05/22 03:21:59;;;;;;;12.97;8.50;;;;;;;16.69;nan;99117.06;5054411;28;20217;-82
2023/05/22 03:24:25;;;;;;;9.80;8.77;;;;;;;16.67;nan;99119.00;5053619;28;20356;-82
2023/05/22 03:26:51;;;;;;;9.07;7.10;;;;;;;16.66;nan;99113.84;5050562;28;20208;-82
2023/05/22 03:29:23;;;;;;;9.38;7.53;;;;;;;16.67;nan;99112.88;5036170;28;20256;-82
2023/05/22 03:31:48;;;;;;;10.03;8.23;;;;;;;16.66;nan;99121.81;5032637;28;20632;-87
2023/05/22 03:34:15;;;;;;;10.70;7.43;;;;;;;16.64;nan;99118.50;5036973;28;21267;-82
2023/05/22 03:36:43;;;;;;;11.63;8.32;;;;;;;16.65;nan;99126.28;5052782;28;20207;-82
2023/05/22 03:39:10;;;;;;;8.73;7.93;;;;;;;16.66;nan;99125.31;5036907;28;20226;-86
2023/05/22 03:41:40;;;;;;;9.57;7.93;;;;;;;16.68;nan;99123.31;5031223;28;20694;-83
2023/05/22 03:44:06;;;;;;;10.20;7.85;;;;;;;16.72;nan;99121.22;5034513;28;20209;-84
2023/05/22 03:46:32;;;;;;;9.07;6.70;;;;;;;16.75;nan;99120.94;5049648;28;20727;-86
2023/05/22 03:48:58;;;;;;;8.87;7.33;;;;;;;16.76;nan;99123.41;5035720;28;20230;-84
2023/05/22 03:51:23;;;;;;;8.70;7.73;;;;;;;16.78;nan;99128.63;5031524;28;20561;-83
2023/05/22 03:53:48;;;;;;;11.47;9.33;;;;;;;16.78;nan;99133.91;5035191;28;20292;-84
2023/05/22 03:56:15;;;;;;;11.07;7.50;;;;;;;16.80;nan;99131.97;5030658;28;20824;-83
2023/05/22 03:58:40;;;;;;;11.35;8.68;;;;;;;16.81;nan;99130.97;5048093;28;20298;-83
2023/05/22 04:01:08;;;;;;;12.93;9.37;;;;;;;16.83;nan;99130.84;5029196;28;20216;-86
2023/05/22 04:03:35;;;;;;;9.68;7.15;;;;;;;16.85;nan;99128.84;5043681;28;20307;-85
2023/05/22 04:06:02;;;;;;;9.15;7.97;;;;;;;16.86;nan;99130.53;5031539;28;20235;-83
2023/05/22 04:08:27;;;;;;;9.13;7.40;;;;;;;16.88;nan;99132.06;5046159;28;20317;-84
2023/05/22 04:10:53;;;;;;;10.90;8.43;;;;;;;16.87;nan;99133.00;5048776;28;20220;-81
2023/05/22 04:13:19;;;;;;;12.60;9.40;;;;;;;16.88;nan;99134.69;5046336;28;20602;-86
2023/05/22 04:15:45;;;;;;;9.47;7.90;;;;;;;16.90;nan;99131.88;5049193;28;20217;-83
2023/05/22 04:18:12;;;;;;;11.90;8.38;;;;;;;16.92;nan;99135.22;5048866;28;20220;-84
2023/05/22 04:20:37;;;;;;;12.47;8.20;;;;;;;16.94;nan;99127.97;5029770;28;20215;-82
2023/05/22 04:23:03;;;;;;;9.20;8.30;;;;;;;16.97;nan;99132.97;5049095;28;20479;-84
2023/05/22 04:25:30;;;;;;;10.80;8.50;;;;;;;16.99;nan;99137.13;5046629;28;20216;-81
2023/05/22 04:27:56;;;;;;;9.40;8.37;;;;;;;17.03;nan;99135.84;5048233;28;20227;-82
2023/05/22 04:30:21;;;;;;;9.83;7.60;;;;;;;17.07;nan;99135.56;5047969;28;20547;-82
2023/05/22 04:32:46;;;;;;;9.37;7.07;;;;;;;17.11;nan;99142.22;5052139;28;20191;-86
2023/05/22 04:35:12;;;;;;;9.40;8.33;;;;;;;17.14;nan;99149.88;5042902;28;20572;-81
2023/05/22 04:37:41;;;;;;;11.33;9.40;;;;;;;17.21;nan;99145.66;5030245;28;20224;-81
2023/05/22 04:40:10;;;;;;;10.18;8.05;;;;;;;17.27;nan;99154.81;5046005;28;20210;-84
2023/05/22 04:42:37;;;;;;;10.80;8.23;;;;;;;17.37;nan;99155.59;5049433;28;20212;-85
2023/05/22 04:45:03;;;;;;;14.98;7.97;;;;;;;17.55;nan;99155.56;5046651;28;20302;-83
2023/05/22 04:47:30;;;;;;;10.40;7.60;;;;;;;17.74;nan;99157.19;5046630;28;20824;-81
2023/05/22 04:49:59;;;;;;;13.37;9.00;;;;;;;17.97;nan;99155.75;5048105;28;20480;-83
2023/05/22 04:52:25;;;;;;;9.20;6.80;;;;;;;18.21;nan;99151.59;5028270;28;20552;-82
2023/05/22 04:54:51;;;;;;;9.13;7.67;;;;;;;18.45;nan;99158.84;5031881;28;20450;-84
2023/05/22 04:57:21;;;;;;;9.73;7.10;;;;;;;18.74;nan;99156.69;5012908;28;20473;-85
2023/05/22 04:59:47;;;;;;;10.70;8.17;;;;;;;19.06;nan;99149.75;5029040;28;20463;-87
2023/05/22 05:02:13;;;;;;;9.43;7.93;;;;;;;19.39;nan;99155.97;5032437;28;20459;-83
2023/05/22 05:04:40;;;;;;;10.53;9.50;;;;;;;19.78;nan;99158.00;5050803;28;20454;-80
2023/05/22 05:07:05;;;;;;;10.47;7.20;;;;;;;20.22;nan;99156.75;5050137;28;20211;-82
2023/05/22 05:09:31;;;;;;;9.50;7.70;;;;;;;20.50;nan;99155.34;5026166;28;20445;-81
2023/05/22 05:11:57;;;;;;;8.30;7.47;;;;;;;20.69;nan;99153.31;5048338;28;20453;-81
2023/05/22 05:14:23;;;;;;;8.67;7.03;;;;;;;20.90;nan;99153.53;5031188;28;20469;-82
2023/05/22 05:16:50;;;;;;;7.57;6.50;;;;;;;21.14;nan;99155.25;5039144;28;20776;-85
2023/05/22 05:19:19;;;;;;;9.07;6.50;;;;;;;21.37;nan;99152.59;5042011;28;20540;-83
2023/05/22 05:21:45;;;;;;;7.63;6.70;;;;;;;21.67;nan;99154.53;5045494;28;20453;-84
2023/05/22 05:24:11;;;;;;;7.83;6.90;;;;;;;21.98;nan;99152.59;5025002;28;21273;-80
2023/05/22 05:26:37;;;;;;;8.10;6.17;;;;;;;22.35;nan;99150.06;5028791;28;20471;-80
2023/05/22 05:29:02;;;;;;;7.20;6.50;;;;;;;22.72;nan;99151.78;5028734;28;20466;-85
2023/05/22 05:31:35;;;;;;;8.53;6.13;;;;;;;23.06;nan;99147.66;5026693;28;20685;-84
2023/05/22 05:34:12;;;;;;;7.40;6.03;;;;;;;23.16;nan;99132.13;5031437;28;20462;-80
2023/05/22 05:36:56;;;;;;;6.53;5.73;;;;;;;22.97;nan;99137.06;5048196;28;20445;-84
2023/05/22 05:39:22;;;;;;;9.50;5.70;;;;;;;22.76;nan;99147.69;5013210;28;20814;-81
2023/05/22 05:41:49;;;;;;;15.10;8.67;;;;;;;22.49;nan;99147.38;5033778;28;20196;-84
2023/05/22 05:44:14;;;;;;;9.40;6.80;;;;;;;22.22;nan;99148.84;5028958;28;20519;-81
2023/05/22 05:46:40;;;;;;;7.50;6.40;;;;;;;21.92;nan;99157.81;5032235;28;20232;-82
2023/05/22 05:49:10;;;;;;;7.00;6.33;;;;;;;21.63;nan;99152.25;5027975;28;20233;-83
2023/05/22 05:51:38;;;;;;;12.13;7.17;;;;;;;21.44;nan;99152.69;5050444;28;20193;-80
2023/05/22 05:54:04;;;;;;;8.20;6.47;;;;;;;21.29;nan;99155.28;5032295;28;20948;-84
2023/05/22 05:56:30;;;;;;;8.40;6.50;;;;;;;21.16;nan;99155.06;5028646;28;20454;-85
2023/05/22 05:58:55;;;;;;;11.77;6.87;;;;;;;21.03;nan;99154.78;5029717;28;20218;-84
2023/05/22 06:01:44;;;;;;;9.07;7.20;;;;;;;20.91;nan;99157.03;5032440;28;20465;-84
2023/05/22 06:04:17;;;;;;;8.33;6.00;;;;;;;20.84;nan;99162.22;5030129;28;20482;-84
2023/05/22 06:06:44;;;;;;;8.13;7.10;;;;;;;20.78;nan;99166.44;5032575;28;21262;-83
2023/05/22 06:09:24;;;;;;;7.20;5.97;;;;;;;20.81;nan;99161.75;5033346;28;20971;-83
2023/05/22 06:12:11;;;;;;;7.00;6.00;;;;;;;20.86;nan;99164.75;5049247;28;20478;-84
2023/05/22 06:14:39;;;;;;;7.90;6.63;;;;;;;20.92;nan;99156.84;5030209;28;20582;-82
2023/05/22 06:17:07;;;;;;;11.40;6.10;;;;;;;21.03;nan;99165.47;5031266;28;20463;-83
2023/05/22 06:19:34;;;;;;;8.30;7.50;;;;;;;21.16;nan;99166.56;5031890;28;20516;-84
2023/05/22 06:22:00;;;;;;;6.87;6.10;;;;;;;21.30;nan;99159.63;5046376;28;21175;-85
2023/05/22 06:24:26;;;;;;;6.67;5.50;;;;;;;21.60;nan;99173.13;5028450;28;20656;-84
2023/05/22 06:26:51;;;;;;;8.80;6.40;;;;;;;22.05;nan;99168.72;5031917;28;20451;-84
2023/05/22 06:29:16;;;;;;;7.30;5.23;;;;;;;22.49;nan;99160.78;5048509;28;20251;-85
2023/05/22 06:31:47;;;;;;;7.80;6.07;;;;;;;22.97;nan;99161.16;5028901;28;20209;-84
2023/05/22 06:34:16;;;;;;;8.60;6.23;;;;;;;23.56;nan;99160.13;5027512;28;20830;-85
2023/05/22 06:36:41;;;;;;;6.27;5.60;;;;;;;24.18;nan;99160.44;5031283;28;20444;-84
2023/05/22 06:39:07;;;;;;;4.73;4.33;;;;;;;24.71;nan;99153.53;5029154;28;20270;-83
2023/05/22 06:42:11;;;;;;;5.63;4.60;;;;;;;25.30;nan;99148.56;5029201;28;20210;-83
2023/05/22 06:44:55;;;;;;;5.50;4.80;;;;;;;25.61;nan;99159.56;5046412;28;20460;-82
2023/05/22 06:47:29;;;;;;;4.57;4.10;;;;;;;25.74;nan;99157.94;5027250;28;20486;-82
2023/05/22 06:49:55;;;;;;;6.47;5.00;;;;;;;26.06;nan;99156.28;5027746;28;20435;-83
2023/05/22 06:52:21;;;;;;;5.70;4.40;;;;;;;26.54;nan;99145.22;5031064;28;20419;-83
2023/05/22 06:54:46;;;;;;;6.40;5.23;;;;;;;27.05;nan;99143.53;5027535;28;20931;-83
2023/05/22 06:57:13;;;;;;;5.77;4.90;;;;;;;27.31;nan;99131.81;5039223;28;20229;-84
2023/05/22 06:59:39;;;;;;;5.30;4.00;;;;;;;27.57;nan;99147.81;5025923;28;20454;-83
2023/05/22 07:02:05;;;;;;;5.33;3.97;;;;;;;27.75;nan;99148.91;5043620;28;20197;-87
2023/05/22 07:04:51;;;;;;;6.32;4.60;;;;;;;27.92;nan;99149.19;5044455;28;20473;-85
2023/05/22 07:07:21;;;;;;;5.30;4.17;;;;;;;27.91;nan;99150.25;5036324;28;20229;-84
2023/05/22 07:09:46;;;;;;;4.57;4.17;;;;;;;28.14;nan;99146.91;5027041;28;20454;-84
2023/05/22 07:12:12;;;;;;;4.27;3.73;;;;;;;28.31;nan;99150.69;5030360;28;20230;-82
2023/05/22 07:14:38;;;;;;;6.33;4.77;;;;;;;28.63;nan;99137.06;5027857;28;20225;-84
2023/05/22 07:17:04;;;;;;;4.27;3.50;;;;;;;28.83;nan;99145.72;5022100;28;20487;-85
2023/05/22 07:19:34;;;;;;;4.17;3.30;;;;;;;29.08;nan;99142.94;5025985;28;20224;-85
2023/05/22 07:22:02;;;;;;;7.33;3.70;;;;;;;29.22;nan;99137.31;5024575;28;20463;-85
2023/05/22 07:24:29;;;;;;;4.37;3.00;;;;;;;29.29;nan;99144.28;5027452;28;20459;-83
2023/05/22 07:26:55;;;;;;;4.73;4.33;;;;;;;29.21;nan;99147.31;5026347;28;20468;-83
2023/05/22 07:29:20;;;;;;;4.00;3.30;;;;;;;29.01;nan;99141.34;5023248;28;20223;-83
2023/05/22 07:31:48;;;;;;;6.10;3.37;;;;;;;28.98;nan;99142.63;5029352;28;20629;-83
2023/05/22 07:34:15;;;;;;;4.10;3.80;;;;;;;29.14;nan;99137.66;5008520;28;20473;-83
2023/05/22 07:36:41;;;;;;;4.07;3.20;;;;;;;29.25;nan;99143.13;5028018;28;20214;-85
2023/05/22 07:39:08;;;;;;;4.10;3.50;;;;;;;29.33;nan;99134.66;5039608;28;20552;-83
2023/05/22 07:41:37;;;;;;;4.60;4.10;;;;;;;29.48;nan;99136.09;5039245;28;20762;-83
2023/05/22 07:44:07;;;;;;;4.30;3.90;;;;;;;29.68;nan;99138.53;5037242;28;20527;-86
2023/05/22 07:46:36;;;;;;;3.67;3.27;;;;;;;30.01;nan;99143.38;5041161;28;20468;-82
2023/05/22 07:49:11;;;;;;;5.33;3.67;;;;;;;30.12;nan;99131.72;5040782;28;20476;-84
2023/05/22 07:51:39;;;;;;;4.80;3.80;;;;;;;29.85;nan;99134.06;5026640;28;20468;-84
2023/05/22 07:54:06;;;;;;;6.87;4.27;;;;;;;29.57;nan;99145.56;5027581;28;20473;-84
2023/05/22 07:56:33;;;;;;;6.00;3.80;;;;;;;29.29;nan;99138.06;5026270;28;20454;-85
2023/05/22 07:58:59;;;;;;;4.43;4.00;;;;;;;29.08;nan;99131.28;5024197;28;20459;-82
2023/05/22 08:01:25;;;;;;;5.80;4.43;;;;;;;29.12;nan;99135.19;5045314;28;20464;-84
2023/05/22 08:03:50;;;;;;;5.13;3.90;;;;;;;29.35;nan;99131.72;5045039;28;20545;-85
2023/05/22 08:06:16;;;;;;;4.97;3.87;;;;;;;29.45;nan;99126.56;5043290;28;20587;-84
2023/05/22 08:08:42;;;;;;;4.33;3.30;;;;;;;29.50;nan;99134.00;5043829;28;20321;-83
2023/05/22 08:11:07;;;;;;;4.87;4.23;;;;;;;29.39;nan;99132.91;5041954;28;20228;-83
2023/05/22 08:13:32;;;;;;;5.07;3.73;;;;;;;29.38;nan;99125.03;5042313;28;20224;-85
2023/05/22 08:15:58;;;;;;;6.10;4.63;;;;;;;29.28;nan;99122.91;5044657;28;20745;-82
2023/05/22 08:18:26;;;;;;;6.47;4.83;;;;;;;29.09;nan;99131.06;5041544;28;20224;-85
2023/05/22 08:20:52;;;;;;;6.67;5.70;;;;;;;28.95;nan;99132.28;5042483;28;20210;-84
2023/05/22 08:23:18;;;;;;;5.00;4.30;;;;;;;29.01;nan;99135.94;5041903;28;20462;-85
2023/05/22 08:25:43;;;;;;;5.93;4.33;;;;;;;29.04;nan;99135.50;5041477;28;20208;-85
2023/05/22 08:28:08;;;;;;;6.03;4.70;;;;;;;29.01;nan;99125.94;5042051;28;20220;-85
2023/05/22 08:30:35;;;;;;;6.77;4.40;;;;;;;28.92;nan;99138.13;5026531;28;20817;-85
2023/05/22 08:33:01;;;;;;;5.37;4.47;;;;;;;28.70;nan;99131.56;5045953;28;20222;-82
2023/05/22 08:35:27;;;;;;;5.07;4.50;;;;;;;28.48;nan;99126.63;5043378;28;20531;-83
2023/05/22 08:37:52;;;;;;;4.63;3.80;;;;;;;28.27;nan;99138.66;5048055;28;20245;-82
2023/05/22 08:40:20;;;;;;;4.43;4.03;;;;;;;28.13;nan;99134.47;5049663;28;20203;-85
2023/05/22 08:42:46;;;;;;;5.33;4.83;;;;;;;28.01;nan;99140.59;5048803;28;20195;-85
2023/05/22 08:45:14;;;;;;;7.17;5.60;;;;;;;28.00;nan;99130.00;5025934;28;20473;-83
2023/05/22 08:47:43;;;;;;;5.20;4.70;;;;;;;27.98;nan;99132.13;5044243;28;20469;-84
2023/05/22 08:50:09;;;;;;;4.63;3.80;;;;;;;28.08;nan;99137.00;5107952;22;20491;-83
2023/05/22 08:52:50;;;;;;;5.10;4.47;;;;;;;28.05;nan;99126.66;5075380;28;20464;-84
2023/05/22 08:55:18;;;;;;;5.43;4.90;;;;;;;27.96;nan;99131.50;5092100;28;20480;-83
2023/05/22 08:57:44;;;;;;;6.00;4.83;;;;;;;28.00;nan;99130.00;5091303;28;20471;-83
2023/05/22 09:00:10;;;;;;;7.90;4.40;;;;;;;27.96;nan;99129.63;5082853;28;20582;-84
2023/05/22 09:02:37;;;;;;;7.20;5.13;;;;;;;27.95;nan;99127.16;5080979;28;20423;-84
2023/05/22 09:05:06;;;;;;;4.07;3.77;;;;;;;27.99;nan;99122.97;5084237;28;20577;-83
2023/05/22 09:07:31;;;;;;;5.67;5.13;;;;;;;28.10;nan;99124.94;5082448;28;20474;-82
2023/05/22 09:09:57;;;;;;;4.73;4.13;;;;;;;28.09;nan;99125.16;5081687;28;21050;-83
2023/05/22 09:12:24;;;;;;;8.53;5.80;;;;;;;28.19;nan;99120.06;5085614;28;20232;-81
2023/05/22 09:14:51;;;;;;;5.13;4.13;;;;;;;28.33;nan;99121.59;5079140;28;20279;-82
2023/05/22 09:17:19;;;;;;;5.27;4.53;;;;;;;28.34;nan;99117.00;5080413;28;20788;-82
2023/05/22 09:19:47;;;;;;;6.47;4.60;;;;;;;28.50;nan;99116.41;5083231;28;20218;-84
2023/05/22 09:22:13;;;;;;;7.40;4.97;;;;;;;28.68;nan;99112.88;5081182;28;20442;-83
2023/05/22 09:24:41;;;;;;;5.73;5.00;;;;;;;28.80;nan;99119.16;5066892;28;20587;-84
2023/05/22 09:27:07;;;;;;;5.20;4.60;;;;;;;28.90;nan;99113.22;5082302;28;20205;-83
2023/05/22 09:29:52;;;;;;;7.77;5.30;;;;;;;29.03;nan;99120.28;5081107;28;20471;-85
2023/05/22 09:32:18;;;;;;;8.33;4.87;;;;;;;28.98;nan;99121.00;5083988;28;20452;-84
2023/05/22 09:34:45;;;;;;;8.13;5.30;;;;;;;28.92;nan;99118.38;5079507;28;20602;-84
2023/05/22 09:37:14;;;;;;;8.27;5.20;;;;;;;28.84;nan;99116.81;5084442;28;20658;-84
2023/05/22 09:39:44;;;;;;;5.67;5.10;;;;;;;28.94;nan;99116.28;5078139;28;20995;-84
2023/05/22 09:42:15;;;;;;;7.23;5.10;;;;;;;29.14;nan;99111.44;5080753;28;20459;-84
2023/05/22 09:44:43;;;;;;;6.30;4.57;;;;;;;29.40;nan;99106.69;5078697;28;20490;-84
2023/05/22 09:47:08;;;;;;;6.23;4.93;;;;;;;29.50;nan;99115.88;5082272;28;20448;-84
2023/05/22 09:49:44;;;;;;;7.40;6.57;;;;;;;29.48;nan;99114.47;5078881;28;20838;-84
2023/05/22 09:52:13;;;;;;;7.10;5.47;;;;;;;29.39;nan;99100.44;5078474;28;20215;-85
2023/05/22 09:54:55;;;;;;;6.80;5.67;;;;;;;29.26;nan;99095.25;5079624;28;20452;-85
2023/05/22 09:57:23;;;;;;;5.57;5.07;;;;;;;29.21;nan;99097.81;5080247;28;20482;-84
2023/05/22 09:59:53;;;;;;;5.83;4.87;;;;;;;29.29;nan;99100.19;5078913;28;20472;-85
2023/05/22 10:02:23;;;;;;;7.73;5.13;;;;;;;29.38;nan;99097.97;5079301;28;20531;-85
2023/05/22 10:04:49;;;;;;;6.10;5.50;;;;;;;29.59;nan;99099.28;5080573;28;20459;-84
2023/05/22 10:07:17;;;;;;;5.90;5.40;;;;;;;29.71;nan;99092.06;5081440;28;20504;-84
2023/05/22 10:09:49;;;;;;;5.63;5.03;;;;;;;29.76;nan;99093.00;5081640;28;20209;-85
2023/05/22 10:12:21;;;;;;;5.70;5.10;;;;;;;29.76;nan;99084.06;5079065;28;20451;-85
2023/05/22 10:14:47;;;;;;;7.40;6.70;;;;;;;29.86;nan;99086.97;5075972;28;20485;-85
2023/05/22 10:17:15;;;;;;;7.20;6.53;;;;;;;30.02;nan;99090.84;5080053;28;20456;-84
2023/05/22 10:19:41;;;;;;;6.70;6.00;;;;;;;30.16;nan;99086.84;5076730;28;20213;-84
2023/05/22 10:22:07;;;;;;;7.40;6.60;;;;;;;30.20;nan;99092.59;5072551;28;20781;-85
2023/05/22 10:24:33;;;;;;;10.27;7.50;;;;;;;30.27;nan;99089.78;5076392;28;21034;-85
2023/05/22 10:26:59;;;;;;;9.73;6.40;;;;;;;30.38;nan;99094.34;5077712;28;20446;-85
2023/05/22 10:29:32;;;;;;;7.90;7.10;;;;;;;30.50;nan;99088.91;5075722;28;20202;-86
2023/05/22 10:32:12;;;;;;;8.33;7.33;;;;;;;30.50;nan;99081.59;5059157;28;20770;-85
2023/05/22 10:35:05;;;;;;;8.40;7.50;;;;;;;30.39;nan;99083.28;5037990;28;20538;-84
2023/05/22 10:37:43;;;;;;;6.93;6.23;;;;;;;30.33;nan;99081.53;5079841;28;20990;-85
2023/05/22 10:40:12;;;;;;;7.70;7.00;;;;;;;30.19;nan;99075.53;5075766;28;21305;-84
2023/05/22 10:42:37;;;;;;;7.80;6.97;;;;;;;30.09;nan;99075.31;5079706;28;20465;-85
2023/05/22 10:45:06;;;;;;;6.93;6.20;;;;;;;30.07;nan;99072.00;5077032;28;20454;-86
2023/05/22 10:47:34;;;;;;;7.30;6.50;;;;;;;30.11;nan;99064.22;5081642;28;20206;-86
2023/05/22 10:50:10;;;;;;;8.80;6.63;;;;;;;30.26;nan;99061.06;5082375;28;20486;-84
2023/05/22 10:52:38;;;;;;;8.90;6.87;;;;;;;30.38;nan;99064.53;5080788;28;20435;-85
2023/05/22 10:55:08;;;;;;;7.00;6.30;;;;;;;30.36;nan;99061.28;5054703;28;20459;-85
2023/05/22 10:57:35;;;;;;;7.57;6.87;;;;;;;30.33;nan;99053.63;5079296;28;20862;-85
2023/05/22 11:00:13;;;;;;;7.37;6.57;;;;;;;30.23;nan;99061.53;5082192;28;20455;-85
2023/05/22 11:02:42;;;;;;;7.70;6.90;;;;;;;30.18;nan;99060.31;5060282;28;20553;-86
2023/05/22 11:05:17;;;;;;;8.40;6.77;;;;;;;30.20;nan;99052.78;5065053;28;20444;-85
2023/05/22 11:07:43;;;;;;;7.33;6.57;;;;;;;30.16;nan;99057.06;5080680;28;20446;-85
2023/05/22 11:10:08;;;;;;;7.10;6.43;;;;;;;30.16;nan;99054.34;5083485;28;20917;-85
2023/05/22 11:12:34;;;;;;;8.03;7.00;;;;;;;30.17;nan;99055.97;5067139;28;20212;-86
2023/05/22 11:15:05;;;;;;;10.20;6.97;;;;;;;30.12;nan;99057.75;5059109;28;20259;-86
2023/05/22 11:17:37;;;;;;;7.20;6.47;;;;;;;29.89;nan;99070.25;5083780;28;20982;-85
2023/05/22 11:20:05;;;;;;;7.30;6.50;;;;;;;29.81;nan;99070.59;5082651;28;20495;-86
2023/05/22 11:22:33;;;;;;;8.30;6.70;;;;;;;29.85;nan;99076.41;5083988;28;20455;-85
2023/05/22 11:24:58;;;;;;;8.63;7.73;;;;;;;29.88;nan;99087.56;5086529;28;20866;-85
2023/05/22 11:27:24;;;;;;;8.57;7.67;;;;;;;30.01;nan;99086.50;5089500;28;23262;-85
2023/05/22 11:29:50;;;;;;;8.20;7.33;;;;;;;30.07;nan;99095.56;5089678;28;20209;-87
2023/05/22 11:32:19;;;;;;;8.43;7.53;;;;;;;30.06;nan;99093.94;5089759;28;20262;-85
2023/05/22 11:34:45;;;;;;;8.17;7.37;;;;;;;29.94;nan;99086.63;5090021;28;20456;-84
2023/05/22 11:37:11;;;;;;;7.90;7.10;;;;;;;29.82;nan;99082.28;5071192;28;20482;-86
2023/05/22 11:39:37;;;;;;;7.90;6.90;;;;;;;29.71;nan;99076.63;5089786;28;20564;-84
2023/05/22 11:42:03;;;;;;;10.00;7.50;;;;;;;29.70;nan;99074.97;5089692;28;20291;-86
2023/05/22 11:44:29;;;;;;;8.00;7.10;;;;;;;29.69;nan;99077.91;5086604;28;20213;-87
2023/05/22 11:46:54;;;;;;;8.63;6.60;;;;;;;29.67;nan;99086.25;5087975;28;20473;-85
2023/05/22 11:49:22;;;;;;;8.90;8.10;;;;;;;29.58;nan;99093.06;5087990;28;20233;-84
2023/05/22 11:51:49;;;;;;;7.20;6.50;;;;;;;29.48;nan;99087.41;5060148;28;20664;-86
2023/05/22 11:54:18;;;;;;;8.13;7.37;;;;;;;29.32;nan;99095.13;5089870;28;21517;-84